sensor_id;sensor_type;location;lat;lon;timestamp;P1;durP1;ratioP1;P2;durP2;ratioP2
23555;SDS011;11956;53.184;8.578;2022-10-18T00:00:47;49.45;;;31.60;;
23555;SDS011;11956;53.184;8.578;2022-10-18T00:03:48;49.38;;;31.08;;
23555;SDS011;11956;53.184;8.578;2022-10-18T00:06:48;50.58;;;31.00;;
23555;SDS011;11956;53.184;8.578;2022-10-18T00:09:49;56.35;;;34.50;;
23555;SDS011;11956;53.184;8.578;2022-10-18T00:12:50;50.30;;;31.83;;
23555;SDS011;11956;53.184;8.578;2022-10-18T00:15:56;46.25;;;30.67;;
23555;SDS011;11956;53.184;8.578;2022-10-18T00:18:59;49.65;;;31.27;;
23555;SDS011;11956;53.184;8.578;2022-10-18T00:22:00;65.20;;;37.50;;
23555;SDS011;11956;53.184;8.578;2022-10-18T00:25:01;59.45;;;35.75;;
23555;SDS011;11956;53.184;8.578;2022-10-18T00:28:02;55.85;;;33.80;;
23555;SDS011;11956;53.184;8.578;2022-10-18T00:31:10;54.53;;;32.70;;
23555;SDS011;11956;53.184;8.578;2022-10-18T00:34:17;54.53;;;33.58;;
23555;SDS011;11956;53.184;8.578;2022-10-18T00:37:18;60.05;;;35.10;;
23555;SDS011;11956;53.184;8.578;2022-10-18T00:40:19;58.10;;;34.40;;
23555;SDS011;11956;53.184;8.578;2022-10-18T00:43:20;56.03;;;33.67;;
23555;SDS011;11956;53.184;8.578;2022-10-18T00:46:21;52.25;;;32.88;;
23555;SDS011;11956;53.184;8.578;2022-10-18T00:52:44;51.97;;;32.95;;
23555;SDS011;11956;53.184;8.578;2022-10-18T00:55:52;55.88;;;32.78;;
23555;SDS011;11956;53.184;8.578;2022-10-18T00:58:53;75.82;;;40.78;;
23555;SDS011;11956;53.184;8.578;2022-10-18T01:01:54;60.20;;;36.63;;
23555;SDS011;11956;53.184;8.578;2022-10-18T01:04:55;59.60;;;35.47;;
23555;SDS011;11956;53.184;8.578;2022-10-18T01:18:15;56.05;;;35.00;;
23555;SDS011;11956;53.184;8.578;2022-10-18T01:21:49;73.45;;;39.78;;
23555;SDS011;11956;53.184;8.578;2022-10-18T01:28:48;67.75;;;37.70;;
23555;SDS011;11956;53.184;8.578;2022-10-18T01:32:14;66.38;;;38.70;;
23555;SDS011;11956;53.184;8.578;2022-10-18T01:35:22;59.35;;;35.88;;
23555;SDS011;11956;53.184;8.578;2022-10-18T01:38:29;61.78;;;36.38;;
23555;SDS011;11956;53.184;8.578;2022-10-18T01:41:32;58.17;;;34.70;;
23555;SDS011;11956;53.184;8.578;2022-10-18T01:44:36;63.53;;;36.30;;
23555;SDS011;11956;53.184;8.578;2022-10-18T01:47:39;56.17;;;34.40;;
23555;SDS011;11956;53.184;8.578;2022-10-18T01:50:42;61.47;;;35.88;;
23555;SDS011;11956;53.184;8.578;2022-10-18T01:53:43;56.53;;;35.03;;
23555;SDS011;11956;53.184;8.578;2022-10-18T01:56:54;81.60;;;41.05;;
23555;SDS011;11956;53.184;8.578;2022-10-18T02:03:24;70.47;;;40.47;;
23555;SDS011;11956;53.184;8.578;2022-10-18T02:06:27;68.85;;;38.97;;
23555;SDS011;11956;53.184;8.578;2022-10-18T02:09:33;64.35;;;37.05;;
23555;SDS011;11956;53.184;8.578;2022-10-18T02:12:41;92.63;;;45.13;;
23555;SDS011;11956;53.184;8.578;2022-10-18T02:15:47;68.53;;;39.30;;
23555;SDS011;11956;53.184;8.578;2022-10-18T02:18:56;73.90;;;40.40;;
23555;SDS011;11956;53.184;8.578;2022-10-18T02:22:00;107.80;;;43.20;;
23555;SDS011;11956;53.184;8.578;2022-10-18T02:25:03;64.07;;;38.58;;
23555;SDS011;11956;53.184;8.578;2022-10-18T02:28:10;60.42;;;37.38;;
23555;SDS011;11956;53.184;8.578;2022-10-18T02:34:21;59.20;;;36.63;;
23555;SDS011;11956;53.184;8.578;2022-10-18T02:37:27;59.40;;;35.97;;
23555;SDS011;11956;53.184;8.578;2022-10-18T02:40:32;63.03;;;37.10;;
23555;SDS011;11956;53.184;8.578;2022-10-18T02:43:33;68.85;;;37.83;;
23555;SDS011;11956;53.184;8.578;2022-10-18T02:46:34;67.68;;;39.70;;
23555;SDS011;11956;53.184;8.578;2022-10-18T02:49:36;58.70;;;36.88;;
23555;SDS011;11956;53.184;8.578;2022-10-18T02:52:36;72.03;;;39.78;;
23555;SDS011;11956;53.184;8.578;2022-10-18T02:55:37;65.30;;;39.20;;
23555;SDS011;11956;53.184;8.578;2022-10-18T02:58:38;82.70;;;43.00;;
23555;SDS011;11956;53.184;8.578;2022-10-18T03:01:39;74.20;;;39.88;;
23555;SDS011;11956;53.184;8.578;2022-10-18T03:04:40;74.38;;;40.45;;
23555;SDS011;11956;53.184;8.578;2022-10-18T03:07:40;70.68;;;39.85;;
23555;SDS011;11956;53.184;8.578;2022-10-18T03:10:44;86.30;;;45.55;;
23555;SDS011;11956;53.184;8.578;2022-10-18T03:13:46;82.55;;;44.33;;
23555;SDS011;11956;53.184;8.578;2022-10-18T03:16:46;85.47;;;45.50;;
23555;SDS011;11956;53.184;8.578;2022-10-18T03:19:48;86.85;;;46.83;;
23555;SDS011;11956;53.184;8.578;2022-10-18T03:22:48;87.57;;;44.83;;
23555;SDS011;11956;53.184;8.578;2022-10-18T03:25:49;78.90;;;43.70;;
23555;SDS011;11956;53.184;8.578;2022-10-18T03:28:50;92.03;;;47.35;;
23555;SDS011;11956;53.184;8.578;2022-10-18T03:31:51;78.78;;;44.08;;
23555;SDS011;11956;53.184;8.578;2022-10-18T03:34:52;86.45;;;46.90;;
23555;SDS011;11956;53.184;8.578;2022-10-18T03:37:52;87.55;;;46.78;;
23555;SDS011;11956;53.184;8.578;2022-10-18T03:40:53;97.18;;;49.05;;
23555;SDS011;11956;53.184;8.578;2022-10-18T03:43:54;156.75;;;58.30;;
23555;SDS011;11956;53.184;8.578;2022-10-18T03:46:55;117.20;;;53.22;;
23555;SDS011;11956;53.184;8.578;2022-10-18T03:49:56;123.07;;;54.65;;
23555;SDS011;11956;53.184;8.578;2022-10-18T03:52:57;112.10;;;52.90;;
23555;SDS011;11956;53.184;8.578;2022-10-18T03:55:57;118.25;;;50.83;;
23555;SDS011;11956;53.184;8.578;2022-10-18T03:58:58;92.45;;;46.13;;
23555;SDS011;11956;53.184;8.578;2022-10-18T04:01:59;75.88;;;38.83;;
23555;SDS011;11956;53.184;8.578;2022-10-18T04:05:00;65.00;;;37.00;;
23555;SDS011;11956;53.184;8.578;2022-10-18T04:08:01;71.38;;;33.90;;
23555;SDS011;11956;53.184;8.578;2022-10-18T04:11:05;46.38;;;30.73;;
23555;SDS011;11956;53.184;8.578;2022-10-18T04:14:11;49.67;;;32.80;;
23555;SDS011;11956;53.184;8.578;2022-10-18T04:17:11;59.78;;;32.83;;
23555;SDS011;11956;53.184;8.578;2022-10-18T04:20:12;48.90;;;32.70;;
23555;SDS011;11956;53.184;8.578;2022-10-18T04:23:13;61.47;;;34.38;;
23555;SDS011;11956;53.184;8.578;2022-10-18T04:26:14;51.60;;;32.40;;
23555;SDS011;11956;53.184;8.578;2022-10-18T04:29:16;53.70;;;33.28;;
23555;SDS011;11956;53.184;8.578;2022-10-18T04:32:17;44.80;;;30.65;;
23555;SDS011;11956;53.184;8.578;2022-10-18T04:35:18;46.03;;;30.80;;
23555;SDS011;11956;53.184;8.578;2022-10-18T04:38:23;44.83;;;31.50;;
23555;SDS011;11956;53.184;8.578;2022-10-18T04:41:24;151.15;;;42.22;;
23555;SDS011;11956;53.184;8.578;2022-10-18T04:44:25;50.40;;;33.22;;
23555;SDS011;11956;53.184;8.578;2022-10-18T04:47:25;57.75;;;35.00;;
23555;SDS011;11956;53.184;8.578;2022-10-18T04:50:26;51.65;;;33.40;;
23555;SDS011;11956;53.184;8.578;2022-10-18T04:53:27;65.43;;;35.97;;
23555;SDS011;11956;53.184;8.578;2022-10-18T04:56:28;53.30;;;32.90;;
23555;SDS011;11956;53.184;8.578;2022-10-18T04:59:29;60.13;;;34.65;;
23555;SDS011;11956;53.184;8.578;2022-10-18T05:02:30;55.92;;;34.30;;
23555;SDS011;11956;53.184;8.578;2022-10-18T05:05:31;50.28;;;31.65;;
23555;SDS011;11956;53.184;8.578;2022-10-18T05:08:32;60.15;;;35.80;;
23555;SDS011;11956;53.184;8.578;2022-10-18T05:11:34;51.78;;;33.05;;
23555;SDS011;11956;53.184;8.578;2022-10-18T05:14:35;47.63;;;32.38;;
23555;SDS011;11956;53.184;8.578;2022-10-18T05:17:36;53.10;;;33.80;;
23555;SDS011;11956;53.184;8.578;2022-10-18T05:20:36;62.47;;;34.65;;
23555;SDS011;11956;53.184;8.578;2022-10-18T05:23:37;41.47;;;29.05;;
23555;SDS011;11956;53.184;8.578;2022-10-18T05:26:39;95.53;;;34.92;;
23555;SDS011;11956;53.184;8.578;2022-10-18T05:29:39;56.47;;;33.03;;
23555;SDS011;11956;53.184;8.578;2022-10-18T05:32:40;46.08;;;30.70;;
23555;SDS011;11956;53.184;8.578;2022-10-18T05:35:41;59.45;;;30.60;;
23555;SDS011;11956;53.184;8.578;2022-10-18T05:38:42;53.47;;;31.38;;
23555;SDS011;11956;53.184;8.578;2022-10-18T05:41:44;51.60;;;32.38;;
23555;SDS011;11956;53.184;8.578;2022-10-18T05:44:45;49.40;;;30.50;;
23555;SDS011;11956;53.184;8.578;2022-10-18T05:47:46;56.50;;;32.80;;
23555;SDS011;11956;53.184;8.578;2022-10-18T05:50:47;50.17;;;31.73;;
23555;SDS011;11956;53.184;8.578;2022-10-18T05:53:47;53.58;;;30.85;;
23555;SDS011;11956;53.184;8.578;2022-10-18T05:56:48;48.22;;;30.55;;
23555;SDS011;11956;53.184;8.578;2022-10-18T05:59:49;52.75;;;31.20;;
23555;SDS011;11956;53.184;8.578;2022-10-18T06:02:50;48.05;;;31.83;;
23555;SDS011;11956;53.184;8.578;2022-10-18T06:05:51;60.30;;;33.05;;
23555;SDS011;11956;53.184;8.578;2022-10-18T06:08:52;57.15;;;32.50;;
23555;SDS011;11956;53.184;8.578;2022-10-18T06:11:53;87.20;;;34.15;;
23555;SDS011;11956;53.184;8.578;2022-10-18T06:14:54;50.47;;;31.67;;
23555;SDS011;11956;53.184;8.578;2022-10-18T06:17:55;109.90;;;37.97;;
23555;SDS011;11956;53.184;8.578;2022-10-18T06:20:58;51.87;;;32.07;;
23555;SDS011;11956;53.184;8.578;2022-10-18T06:23:59;53.78;;;31.77;;
23555;SDS011;11956;53.184;8.578;2022-10-18T06:26:59;50.00;;;30.40;;
23555;SDS011;11956;53.184;8.578;2022-10-18T06:30:03;47.35;;;29.58;;
23555;SDS011;11956;53.184;8.578;2022-10-18T06:33:05;50.40;;;29.85;;
23555;SDS011;11956;53.184;8.578;2022-10-18T06:36:07;51.30;;;30.38;;
23555;SDS011;11956;53.184;8.578;2022-10-18T06:39:14;85.22;;;35.20;;
23555;SDS011;11956;53.184;8.578;2022-10-18T06:42:15;93.10;;;34.30;;
23555;SDS011;11956;53.184;8.578;2022-10-18T06:45:17;74.93;;;31.65;;
23555;SDS011;11956;53.184;8.578;2022-10-18T06:48:18;74.28;;;32.25;;
23555;SDS011;11956;53.184;8.578;2022-10-18T06:51:19;107.72;;;35.80;;
23555;SDS011;11956;53.184;8.578;2022-10-18T06:54:20;70.75;;;33.35;;
23555;SDS011;11956;53.184;8.578;2022-10-18T06:57:21;132.93;;;36.50;;
23555;SDS011;11956;53.184;8.578;2022-10-18T07:00:22;108.38;;;35.58;;
23555;SDS011;11956;53.184;8.578;2022-10-18T07:03:23;61.83;;;30.75;;
23555;SDS011;11956;53.184;8.578;2022-10-18T07:06:25;84.68;;;32.35;;
23555;SDS011;11956;53.184;8.578;2022-10-18T07:09:26;47.15;;;27.00;;
23555;SDS011;11956;53.184;8.578;2022-10-18T07:12:27;49.60;;;28.30;;
23555;SDS011;11956;53.184;8.578;2022-10-18T07:15:27;52.20;;;28.15;;
23555;SDS011;11956;53.184;8.578;2022-10-18T07:18:28;70.25;;;30.13;;
23555;SDS011;11956;53.184;8.578;2022-10-18T07:21:29;46.65;;;24.60;;
23555;SDS011;11956;53.184;8.578;2022-10-18T07:24:30;55.47;;;27.50;;
23555;SDS011;11956;53.184;8.578;2022-10-18T07:27:35;70.53;;;29.83;;
23555;SDS011;11956;53.184;8.578;2022-10-18T07:30:41;53.95;;;27.08;;
23555;SDS011;11956;53.184;8.578;2022-10-18T07:33:42;42.05;;;24.17;;
23555;SDS011;11956;53.184;8.578;2022-10-18T07:36:42;48.58;;;26.17;;
23555;SDS011;11956;53.184;8.578;2022-10-18T07:39:43;48.55;;;25.73;;
23555;SDS011;11956;53.184;8.578;2022-10-18T07:42:44;49.40;;;24.83;;
23555;SDS011;11956;53.184;8.578;2022-10-18T07:45:50;47.25;;;24.85;;
23555;SDS011;11956;53.184;8.578;2022-10-18T07:48:55;59.72;;;28.55;;
23555;SDS011;11956;53.184;8.578;2022-10-18T07:51:57;54.50;;;27.92;;
23555;SDS011;11956;53.184;8.578;2022-10-18T07:54:58;42.08;;;24.15;;
23555;SDS011;11956;53.184;8.578;2022-10-18T07:57:59;50.80;;;25.92;;
23555;SDS011;11956;53.184;8.578;2022-10-18T08:01:00;54.42;;;27.65;;
23555;SDS011;11956;53.184;8.578;2022-10-18T08:04:06;41.70;;;23.48;;
23555;SDS011;11956;53.184;8.578;2022-10-18T08:07:07;49.28;;;23.50;;
23555;SDS011;11956;53.184;8.578;2022-10-18T08:10:08;35.70;;;22.23;;
23555;SDS011;11956;53.184;8.578;2022-10-18T08:13:09;39.53;;;23.92;;
23555;SDS011;11956;53.184;8.578;2022-10-18T08:16:14;37.90;;;22.05;;
23555;SDS011;11956;53.184;8.578;2022-10-18T08:19:21;38.97;;;22.05;;
23555;SDS011;11956;53.184;8.578;2022-10-18T08:22:22;37.00;;;23.05;;
23555;SDS011;11956;53.184;8.578;2022-10-18T08:25:23;50.78;;;23.13;;
23555;SDS011;11956;53.184;8.578;2022-10-18T08:28:24;34.13;;;20.50;;
23555;SDS011;11956;53.184;8.578;2022-10-18T08:31:24;27.92;;;18.88;;
23555;SDS011;11956;53.184;8.578;2022-10-18T08:34:25;28.48;;;18.40;;
23555;SDS011;11956;53.184;8.578;2022-10-18T08:37:26;27.95;;;17.30;;
23555;SDS011;11956;53.184;8.578;2022-10-18T08:40:27;29.42;;;17.48;;
23555;SDS011;11956;53.184;8.578;2022-10-18T08:46:46;27.02;;;17.58;;
23555;SDS011;11956;53.184;8.578;2022-10-18T08:49:51;28.25;;;17.13;;
23555;SDS011;11956;53.184;8.578;2022-10-18T08:53:14;27.23;;;17.17;;
23555;SDS011;11956;53.184;8.578;2022-10-18T08:56:46;27.88;;;15.63;;
23555;SDS011;11956;53.184;8.578;2022-10-18T08:59:58;23.25;;;16.05;;
23555;SDS011;11956;53.184;8.578;2022-10-18T09:10:05;22.00;;;14.52;;
23555;SDS011;11956;53.184;8.578;2022-10-18T09:20:20;14.77;;;8.82;;
23555;SDS011;11956;53.184;8.578;2022-10-18T09:23:48;15.75;;;8.85;;
23555;SDS011;11956;53.184;8.578;2022-10-18T09:27:05;15.40;;;9.98;;
23555;SDS011;11956;53.184;8.578;2022-10-18T09:36:43;14.80;;;10.18;;
23555;SDS011;11956;53.184;8.578;2022-10-18T09:39:46;16.00;;;10.02;;
23555;SDS011;11956;53.184;8.578;2022-10-18T09:42:52;17.95;;;11.40;;
23555;SDS011;11956;53.184;8.578;2022-10-18T09:45:58;24.10;;;15.80;;
23555;SDS011;11956;53.184;8.578;2022-10-18T09:49:03;15.55;;;10.25;;
23555;SDS011;11956;53.184;8.578;2022-10-18T09:52:41;16.10;;;11.10;;
23555;SDS011;11956;53.184;8.578;2022-10-18T09:56:19;14.80;;;10.25;;
23555;SDS011;11956;53.184;8.578;2022-10-18T09:59:46;16.13;;;10.25;;
23555;SDS011;11956;53.184;8.578;2022-10-18T10:02:49;15.50;;;10.07;;
23555;SDS011;11956;53.184;8.578;2022-10-18T10:06:00;16.55;;;11.07;;
23555;SDS011;11956;53.184;8.578;2022-10-18T10:09:15;19.48;;;14.00;;
23555;SDS011;11956;53.184;8.578;2022-10-18T10:12:33;20.33;;;11.90;;
23555;SDS011;11956;53.184;8.578;2022-10-18T10:15:37;17.45;;;10.85;;
23555;SDS011;11956;53.184;8.578;2022-10-18T10:18:38;17.42;;;10.38;;
23555;SDS011;11956;53.184;8.578;2022-10-18T10:21:39;20.77;;;10.88;;
23555;SDS011;11956;53.184;8.578;2022-10-18T10:27:48;17.27;;;10.55;;
23555;SDS011;11956;53.184;8.578;2022-10-18T10:30:49;17.85;;;9.50;;
23555;SDS011;11956;53.184;8.578;2022-10-18T10:37:08;16.88;;;8.48;;
23555;SDS011;11956;53.184;8.578;2022-10-18T10:40:34;13.57;;;8.38;;
23555;SDS011;11956;53.184;8.578;2022-10-18T10:43:46;15.55;;;8.55;;
23555;SDS011;11956;53.184;8.578;2022-10-18T10:46:48;17.67;;;8.73;;
23555;SDS011;11956;53.184;8.578;2022-10-18T10:49:50;17.00;;;7.90;;
23555;SDS011;11956;53.184;8.578;2022-10-18T10:52:55;16.90;;;8.10;;
23555;SDS011;11956;53.184;8.578;2022-10-18T10:55:56;15.27;;;7.15;;
23555;SDS011;11956;53.184;8.578;2022-10-18T10:59:00;15.83;;;7.53;;
23555;SDS011;11956;53.184;8.578;2022-10-18T11:05:22;21.02;;;7.97;;
23555;SDS011;11956;53.184;8.578;2022-10-18T11:08:27;17.02;;;7.28;;
23555;SDS011;11956;53.184;8.578;2022-10-18T11:11:38;16.75;;;7.28;;
23555;SDS011;11956;53.184;8.578;2022-10-18T11:14:48;13.75;;;6.38;;
23555;SDS011;11956;53.184;8.578;2022-10-18T11:18:28;13.68;;;6.22;;
23555;SDS011;11956;53.184;8.578;2022-10-18T11:21:34;15.43;;;5.28;;
23555;SDS011;11956;53.184;8.578;2022-10-18T11:24:37;11.43;;;4.53;;
23555;SDS011;11956;53.184;8.578;2022-10-18T11:27:51;14.27;;;4.30;;
23555;SDS011;11956;53.184;8.578;2022-10-18T11:38:30;12.77;;;4.70;;
23555;SDS011;11956;53.184;8.578;2022-10-18T11:41:55;14.82;;;4.35;;
23555;SDS011;11956;53.184;8.578;2022-10-18T11:45:26;10.95;;;3.75;;
23555;SDS011;11956;53.184;8.578;2022-10-18T11:49:02;13.00;;;3.72;;
23555;SDS011;11956;53.184;8.578;2022-10-18T11:55:26;12.93;;;3.28;;
23555;SDS011;11956;53.184;8.578;2022-10-18T12:05:55;9.15;;;2.35;;
23555;SDS011;11956;53.184;8.578;2022-10-18T12:09:24;13.52;;;2.70;;
23555;SDS011;11956;53.184;8.578;2022-10-18T12:12:41;12.55;;;2.08;;
23555;SDS011;11956;53.184;8.578;2022-10-18T12:15:51;14.52;;;2.67;;
23555;SDS011;11956;53.184;8.578;2022-10-18T12:18:53;9.52;;;2.05;;
23555;SDS011;11956;53.184;8.578;2022-10-18T12:22:13;9.27;;;1.75;;
23555;SDS011;11956;53.184;8.578;2022-10-18T12:25:28;10.57;;;2.17;;
23555;SDS011;11956;53.184;8.578;2022-10-18T12:29:19;14.07;;;2.60;;
23555;SDS011;11956;53.184;8.578;2022-10-18T12:32:21;12.90;;;2.58;;
23555;SDS011;11956;53.184;8.578;2022-10-18T12:35:29;10.70;;;1.80;;
23555;SDS011;11956;53.184;8.578;2022-10-18T12:38:59;8.35;;;2.00;;
23555;SDS011;11956;53.184;8.578;2022-10-18T12:42:04;14.32;;;2.53;;
23555;SDS011;11956;53.184;8.578;2022-10-18T12:45:27;12.68;;;2.30;;
23555;SDS011;11956;53.184;8.578;2022-10-18T12:48:33;12.63;;;2.60;;
23555;SDS011;11956;53.184;8.578;2022-10-18T12:51:48;11.77;;;2.78;;
23555;SDS011;11956;53.184;8.578;2022-10-18T13:01:13;11.85;;;2.00;;
23555;SDS011;11956;53.184;8.578;2022-10-18T13:10:31;9.00;;;2.03;;
23555;SDS011;11956;53.184;8.578;2022-10-18T13:16:57;9.00;;;1.75;;
23555;SDS011;11956;53.184;8.578;2022-10-18T13:23:47;13.25;;;2.25;;
23555;SDS011;11956;53.184;8.578;2022-10-18T13:30:22;10.88;;;1.90;;
23555;SDS011;11956;53.184;8.578;2022-10-18T13:33:40;9.15;;;1.75;;
23555;SDS011;11956;53.184;8.578;2022-10-18T13:36:41;15.63;;;2.22;;
23555;SDS011;11956;53.184;8.578;2022-10-18T13:39:43;11.95;;;1.90;;
23555;SDS011;11956;53.184;8.578;2022-10-18T13:42:44;13.52;;;2.30;;
23555;SDS011;11956;53.184;8.578;2022-10-18T13:45:52;15.02;;;2.17;;
23555;SDS011;11956;53.184;8.578;2022-10-18T13:55:44;11.23;;;2.28;;
23555;SDS011;11956;53.184;8.578;2022-10-18T14:06:24;15.40;;;2.50;;
23555;SDS011;11956;53.184;8.578;2022-10-18T14:09:51;9.07;;;1.65;;
23555;SDS011;11956;53.184;8.578;2022-10-18T14:12:54;13.30;;;2.13;;
23555;SDS011;11956;53.184;8.578;2022-10-18T14:16:16;16.33;;;2.13;;
23555;SDS011;11956;53.184;8.578;2022-10-18T14:19:33;11.27;;;2.03;;
23555;SDS011;11956;53.184;8.578;2022-10-18T14:25:49;10.48;;;1.77;;
23555;SDS011;11956;53.184;8.578;2022-10-18T14:29:05;11.13;;;1.60;;
23555;SDS011;11956;53.184;8.578;2022-10-18T14:32:25;12.45;;;1.80;;
23555;SDS011;11956;53.184;8.578;2022-10-18T14:35:30;10.75;;;2.03;;
23555;SDS011;11956;53.184;8.578;2022-10-18T14:38:33;13.63;;;2.00;;
23555;SDS011;11956;53.184;8.578;2022-10-18T14:41:50;9.38;;;1.38;;
23555;SDS011;11956;53.184;8.578;2022-10-18T14:44:56;12.02;;;2.00;;
23555;SDS011;11956;53.184;8.578;2022-10-18T14:48:04;10.38;;;1.38;;
23555;SDS011;11956;53.184;8.578;2022-10-18T14:51:35;10.98;;;2.05;;
23555;SDS011;11956;53.184;8.578;2022-10-18T14:54:38;10.65;;;2.22;;
23555;SDS011;11956;53.184;8.578;2022-10-18T14:57:39;9.07;;;1.73;;
23555;SDS011;11956;53.184;8.578;2022-10-18T15:00:41;13.93;;;2.65;;
23555;SDS011;11956;53.184;8.578;2022-10-18T15:03:42;15.32;;;2.50;;
23555;SDS011;11956;53.184;8.578;2022-10-18T15:06:43;12.18;;;1.77;;
23555;SDS011;11956;53.184;8.578;2022-10-18T15:09:44;14.70;;;2.33;;
23555;SDS011;11956;53.184;8.578;2022-10-18T15:12:46;16.60;;;2.45;;
23555;SDS011;11956;53.184;8.578;2022-10-18T15:15:49;13.75;;;2.78;;
23555;SDS011;11956;53.184;8.578;2022-10-18T15:25:28;12.30;;;2.20;;
23555;SDS011;11956;53.184;8.578;2022-10-18T15:28:41;8.52;;;1.88;;
23555;SDS011;11956;53.184;8.578;2022-10-18T15:32:02;12.85;;;2.22;;
23555;SDS011;11956;53.184;8.578;2022-10-18T15:35:15;11.50;;;2.30;;
23555;SDS011;11956;53.184;8.578;2022-10-18T15:42:30;16.88;;;2.20;;
23555;SDS011;11956;53.184;8.578;2022-10-18T15:45:01;10.82;;;1.83;;
23555;SDS011;11956;53.184;8.578;2022-10-18T15:51:06;9.85;;;2.40;;
23555;SDS011;11956;53.184;8.578;2022-10-18T15:54:47;11.35;;;2.17;;
23555;SDS011;11956;53.184;8.578;2022-10-18T15:57:48;9.90;;;2.42;;
23555;SDS011;11956;53.184;8.578;2022-10-18T16:00:49;14.25;;;4.00;;
23555;SDS011;11956;53.184;8.578;2022-10-18T16:03:53;14.63;;;3.25;;
23555;SDS011;11956;53.184;8.578;2022-10-18T16:06:54;11.15;;;2.13;;
23555;SDS011;11956;53.184;8.578;2022-10-18T16:09:56;14.57;;;2.10;;
23555;SDS011;11956;53.184;8.578;2022-10-18T16:12:57;11.57;;;2.15;;
23555;SDS011;11956;53.184;8.578;2022-10-18T16:15:57;10.57;;;2.20;;
23555;SDS011;11956;53.184;8.578;2022-10-18T16:18:59;14.10;;;2.42;;
23555;SDS011;11956;53.184;8.578;2022-10-18T16:22:00;14.20;;;2.97;;
23555;SDS011;11956;53.184;8.578;2022-10-18T16:25:01;13.55;;;2.80;;
23555;SDS011;11956;53.184;8.578;2022-10-18T16:28:02;15.88;;;6.28;;
23555;SDS011;11956;53.184;8.578;2022-10-18T16:31:03;13.15;;;3.80;;
23555;SDS011;11956;53.184;8.578;2022-10-18T16:34:05;13.93;;;3.10;;
23555;SDS011;11956;53.184;8.578;2022-10-18T16:37:09;18.85;;;3.55;;
23555;SDS011;11956;53.184;8.578;2022-10-18T16:40:31;15.95;;;3.33;;
23555;SDS011;11956;53.184;8.578;2022-10-18T16:43:32;14.43;;;3.72;;
23555;SDS011;11956;53.184;8.578;2022-10-18T16:46:34;15.50;;;2.80;;
23555;SDS011;11956;53.184;8.578;2022-10-18T16:49:35;13.80;;;3.28;;
23555;SDS011;11956;53.184;8.578;2022-10-18T16:52:36;11.68;;;2.78;;
23555;SDS011;11956;53.184;8.578;2022-10-18T16:55:38;10.35;;;2.63;;
23555;SDS011;11956;53.184;8.578;2022-10-18T16:58:40;17.27;;;3.45;;
23555;SDS011;11956;53.184;8.578;2022-10-18T17:01:42;12.20;;;2.15;;
23555;SDS011;11956;53.184;8.578;2022-10-18T17:04:43;10.70;;;2.17;;
23555;SDS011;11956;53.184;8.578;2022-10-18T17:07:45;14.63;;;3.47;;
23555;SDS011;11956;53.184;8.578;2022-10-18T17:10:46;12.10;;;3.50;;
23555;SDS011;11956;53.184;8.578;2022-10-18T17:13:52;16.15;;;3.63;;
23555;SDS011;11956;53.184;8.578;2022-10-18T17:16:53;17.63;;;3.28;;
23555;SDS011;11956;53.184;8.578;2022-10-18T17:19:54;15.23;;;3.20;;
23555;SDS011;11956;53.184;8.578;2022-10-18T17:22:55;18.52;;;3.90;;
23555;SDS011;11956;53.184;8.578;2022-10-18T17:25:56;12.23;;;3.25;;
23555;SDS011;11956;53.184;8.578;2022-10-18T17:28:58;12.48;;;3.17;;
23555;SDS011;11956;53.184;8.578;2022-10-18T17:32:02;14.85;;;4.70;;
23555;SDS011;11956;53.184;8.578;2022-10-18T17:35:03;14.32;;;4.72;;
23555;SDS011;11956;53.184;8.578;2022-10-18T17:38:05;12.48;;;3.30;;
23555;SDS011;11956;53.184;8.578;2022-10-18T17:41:07;11.60;;;2.38;;
23555;SDS011;11956;53.184;8.578;2022-10-18T17:44:09;11.33;;;2.67;;
23555;SDS011;11956;53.184;8.578;2022-10-18T17:47:10;10.43;;;2.30;;
23555;SDS011;11956;53.184;8.578;2022-10-18T17:50:11;11.75;;;2.20;;
23555;SDS011;11956;53.184;8.578;2022-10-18T17:53:13;15.45;;;2.90;;
23555;SDS011;11956;53.184;8.578;2022-10-18T17:56:17;8.93;;;2.70;;
23555;SDS011;11956;53.184;8.578;2022-10-18T17:59:18;13.45;;;2.17;;
23555;SDS011;11956;53.184;8.578;2022-10-18T18:02:19;11.77;;;2.08;;
23555;SDS011;11956;53.184;8.578;2022-10-18T18:05:20;13.10;;;2.58;;
23555;SDS011;11956;53.184;8.578;2022-10-18T18:08:21;11.80;;;1.92;;
23555;SDS011;11956;53.184;8.578;2022-10-18T18:11:24;8.52;;;1.30;;
23555;SDS011;11956;53.184;8.578;2022-10-18T18:14:26;15.70;;;2.35;;
23555;SDS011;11956;53.184;8.578;2022-10-18T18:17:27;9.40;;;2.65;;
23555;SDS011;11956;53.184;8.578;2022-10-18T18:20:28;6.70;;;2.00;;
23555;SDS011;11956;53.184;8.578;2022-10-18T18:23:29;11.32;;;2.00;;
23555;SDS011;11956;53.184;8.578;2022-10-18T18:26:30;6.85;;;1.77;;
23555;SDS011;11956;53.184;8.578;2022-10-18T18:29:32;7.47;;;2.20;;
23555;SDS011;11956;53.184;8.578;2022-10-18T18:32:33;8.68;;;1.65;;
23555;SDS011;11956;53.184;8.578;2022-10-18T18:35:34;8.27;;;1.58;;
23555;SDS011;11956;53.184;8.578;2022-10-18T18:38:37;9.15;;;1.33;;
23555;SDS011;11956;53.184;8.578;2022-10-18T18:41:41;8.40;;;1.52;;
23555;SDS011;11956;53.184;8.578;2022-10-18T18:44:42;8.30;;;1.80;;
23555;SDS011;11956;53.184;8.578;2022-10-18T18:47:45;9.15;;;1.73;;
23555;SDS011;11956;53.184;8.578;2022-10-18T18:50:46;7.07;;;1.50;;
23555;SDS011;11956;53.184;8.578;2022-10-18T18:53:49;9.57;;;2.17;;
23555;SDS011;11956;53.184;8.578;2022-10-18T18:56:50;10.38;;;1.88;;
23555;SDS011;11956;53.184;8.578;2022-10-18T18:59:51;5.82;;;1.40;;
23555;SDS011;11956;53.184;8.578;2022-10-18T19:02:52;10.45;;;2.10;;
23555;SDS011;11956;53.184;8.578;2022-10-18T19:06:00;9.05;;;2.20;;
23555;SDS011;11956;53.184;8.578;2022-10-18T19:09:12;7.72;;;2.70;;
23555;SDS011;11956;53.184;8.578;2022-10-18T19:12:21;8.35;;;1.70;;
23555;SDS011;11956;53.184;8.578;2022-10-18T19:15:21;5.97;;;1.50;;
23555;SDS011;11956;53.184;8.578;2022-10-18T19:18:22;5.55;;;1.80;;
23555;SDS011;11956;53.184;8.578;2022-10-18T19:21:24;4.30;;;1.10;;
23555;SDS011;11956;53.184;8.578;2022-10-18T19:24:28;5.78;;;1.42;;
23555;SDS011;11956;53.184;8.578;2022-10-18T19:27:30;8.52;;;1.60;;
23555;SDS011;11956;53.184;8.578;2022-10-18T19:30:31;6.25;;;1.75;;
23555;SDS011;11956;53.184;8.578;2022-10-18T19:33:32;5.35;;;1.55;;
23555;SDS011;11956;53.184;8.578;2022-10-18T19:36:33;6.70;;;2.10;;
23555;SDS011;11956;53.184;8.578;2022-10-18T19:39:34;6.75;;;1.80;;
23555;SDS011;11956;53.184;8.578;2022-10-18T19:42:35;6.07;;;1.75;;
23555;SDS011;11956;53.184;8.578;2022-10-18T19:45:36;8.48;;;1.55;;
23555;SDS011;11956;53.184;8.578;2022-10-18T19:48:37;11.65;;;2.00;;
23555;SDS011;11956;53.184;8.578;2022-10-18T19:51:38;12.20;;;2.08;;
23555;SDS011;11956;53.184;8.578;2022-10-18T19:54:39;9.10;;;1.90;;
23555;SDS011;11956;53.184;8.578;2022-10-18T19:57:40;5.75;;;1.80;;
23555;SDS011;11956;53.184;8.578;2022-10-18T20:00:41;7.18;;;1.65;;
23555;SDS011;11956;53.184;8.578;2022-10-18T20:03:42;5.97;;;1.30;;
23555;SDS011;11956;53.184;8.578;2022-10-18T20:06:43;9.48;;;1.60;;
23555;SDS011;11956;53.184;8.578;2022-10-18T20:09:44;8.13;;;1.50;;
23555;SDS011;11956;53.184;8.578;2022-10-18T20:12:47;5.13;;;1.15;;
23555;SDS011;11956;53.184;8.578;2022-10-18T20:15:48;4.60;;;1.10;;
23555;SDS011;11956;53.184;8.578;2022-10-18T20:18:54;3.40;;;0.93;;